sensor_id;sensor_type;location;lat;lon;timestamp;pressure;altitude;pressure_sealevel;temperature;humidity
80585;BME280;70137;56.482;9.154;2023-05-29T00:02:07;102246.72;;;8.31;70.27
80585;BME280;70137;56.482;9.154;2023-05-29T00:04:36;102251.13;;;8.29;71.29
80585;BME280;70137;56.482;9.154;2023-05-29T00:07:02;102244.44;;;8.27;70.93
80585;BME280;70137;56.482;9.154;2023-05-29T00:09:27;102245.38;;;8.26;71.40
80585;BME280;70137;56.482;9.154;2023-05-29T00:11:53;102237.75;;;8.24;72.67
80585;BME280;70137;56.482;9.154;2023-05-29T00:14:19;102246.66;;;8.20;72.77
80585;BME280;70137;56.482;9.154;2023-05-29T00:16:45;102249.25;;;8.20;71.80
80585;BME280;70137;56.482;9.154;2023-05-29T00:19:12;102239.94;;;8.18;72.29
80585;BME280;70137;56.482;9.154;2023-05-29T00:21:39;102238.53;;;8.14;72.63
80585;BME280;70137;56.482;9.154;2023-05-29T00:24:05;102244.94;;;8.08;73.06
80585;BME280;70137;56.482;9.154;2023-05-29T00:26:30;102240.00;;;8.05;72.71
80585;BME280;70137;56.482;9.154;2023-05-29T00:28:55;102239.31;;;8.03;72.52
80585;BME280;70137;56.482;9.154;2023-05-29T00:31:21;102244.66;;;8.00;73.05
80585;BME280;70137;56.482;9.154;2023-05-29T00:33:46;102240.44;;;7.99;73.65
80585;BME280;70137;56.482;9.154;2023-05-29T00:36:12;102226.59;;;8.00;73.41
80585;BME280;70137;56.482;9.154;2023-05-29T00:38:37;102231.75;;;8.00;72.72
80585;BME280;70137;56.482;9.154;2023-05-29T00:41:02;102236.22;;;7.98;73.20
80585;BME280;70137;56.482;9.154;2023-05-29T00:43:28;102248.06;;;8.00;72.95
80585;BME280;70137;56.482;9.154;2023-05-29T00:45:53;102248.69;;;8.04;72.93
80585;BME280;70137;56.482;9.154;2023-05-29T00:48:19;102253.84;;;8.04;73.01
80585;BME280;70137;56.482;9.154;2023-05-29T00:50:44;102247.75;;;8.05;72.84
80585;BME280;70137;56.482;9.154;2023-05-29T00:53:10;102252.22;;;8.03;72.86
80585;BME280;70137;56.482;9.154;2023-05-29T00:55:36;102248.00;;;8.02;72.76
80585;BME280;70137;56.482;9.154;2023-05-29T00:58:01;102252.41;;;8.00;72.96
80585;BME280;70137;56.482;9.154;2023-05-29T01:00:27;102264.41;;;8.01;73.29
80585;BME280;70137;56.482;9.154;2023-05-29T01:02:53;102267.81;;;8.01;72.85
80585;BME280;70137;56.482;9.154;2023-05-29T01:05:21;102260.91;;;8.02;72.89
80585;BME280;70137;56.482;9.154;2023-05-29T01:07:46;102257.50;;;8.01;73.34
80585;BME280;70137;56.482;9.154;2023-05-29T01:10:12;102256.75;;;7.99;73.19
80585;BME280;70137;56.482;9.154;2023-05-29T01:12:45;102268.03;;;7.98;73.53
80585;BME280;70137;56.482;9.154;2023-05-29T01:20:56;102261.22;;;7.97;73.12
80585;BME280;70137;56.482;9.154;2023-05-29T01:29:00;102268.84;;;7.99;73.10
80585;BME280;70137;56.482;9.154;2023-05-29T01:31:26;102264.41;;;8.01;73.37
80585;BME280;70137;56.482;9.154;2023-05-29T01:33:56;102266.88;;;8.02;73.32
80585;BME280;70137;56.482;9.154;2023-05-29T01:36:23;102261.72;;;8.02;73.05
80585;BME280;70137;56.482;9.154;2023-05-29T01:38:53;102258.41;;;8.00;73.16
80585;BME280;70137;56.482;9.154;2023-05-29T01:41:20;102260.91;;;8.02;73.59
80585;BME280;70137;56.482;9.154;2023-05-29T01:43:47;102273.81;;;8.02;72.67
80585;BME280;70137;56.482;9.154;2023-05-29T01:46:13;102267.00;;;8.01;72.86
80585;BME280;70137;56.482;9.154;2023-05-29T01:48:41;102269.59;;;8.01;72.95
80585;BME280;70137;56.482;9.154;2023-05-29T01:51:09;102271.22;;;8.02;73.31
80585;BME280;70137;56.482;9.154;2023-05-29T01:53:36;102273.81;;;8.02;73.36
80585;BME280;70137;56.482;9.154;2023-05-29T01:56:02;102268.84;;;7.99;73.06
80585;BME280;70137;56.482;9.154;2023-05-29T01:58:30;102280.00;;;7.99;73.02
80585;BME280;70137;56.482;9.154;2023-05-29T02:01:01;102274.94;;;7.98;73.04
80585;BME280;70137;56.482;9.154;2023-05-29T02:03:26;102274.94;;;7.98;72.96
80585;BME280;70137;56.482;9.154;2023-05-29T02:05:57;102267.44;;;7.95;73.17
80585;BME280;70137;56.482;9.154;2023-05-29T02:08:22;102266.59;;;7.94;72.89
80585;BME280;70137;56.482;9.154;2023-05-29T02:10:47;102264.84;;;7.95;73.36
80585;BME280;70137;56.482;9.154;2023-05-29T02:13:13;102268.34;;;7.94;72.95
80585;BME280;70137;56.482;9.154;2023-05-29T02:15:38;102268.34;;;7.94;72.97
80585;BME280;70137;56.482;9.154;2023-05-29T02:18:04;102266.72;;;7.93;72.70
80585;BME280;70137;56.482;9.154;2023-05-29T02:20:30;102270.94;;;7.94;72.25
80585;BME280;70137;56.482;9.154;2023-05-29T02:22:55;102266.59;;;7.94;72.99
80585;BME280;70137;56.482;9.154;2023-05-29T02:25:20;102264.13;;;7.93;73.43
80585;BME280;70137;56.482;9.154;2023-05-29T02:27:46;102274.56;;;7.91;73.46
80585;BME280;70137;56.482;9.154;2023-05-29T02:30:11;102284.91;;;7.91;73.11
80585;BME280;70137;56.482;9.154;2023-05-29T02:32:37;102285.81;;;7.90;72.64
80585;BME280;70137;56.482;9.154;2023-05-29T02:35:03;102284.97;;;7.90;72.80
80585;BME280;70137;56.482;9.154;2023-05-29T02:37:28;102281.56;;;7.89;72.44
80585;BME280;70137;56.482;9.154;2023-05-29T02:39:54;102279.22;;;7.86;72.70
80585;BME280;70137;56.482;9.154;2023-05-29T02:42:19;102271.59;;;7.85;73.20
80585;BME280;70137;56.482;9.154;2023-05-29T02:44:44;102282.75;;;7.85;72.35
80585;BME280;70137;56.482;9.154;2023-05-29T02:47:10;102281.91;;;7.85;72.82
80585;BME280;70137;56.482;9.154;2023-05-29T02:49:35;102278.50;;;7.84;73.10
80585;BME280;70137;56.482;9.154;2023-05-29T02:52:00;102284.38;;;7.86;73.20
80585;BME280;70137;56.482;9.154;2023-05-29T02:54:26;102281.81;;;7.86;73.14
80585;BME280;70137;56.482;9.154;2023-05-29T02:56:52;102277.47;;;7.87;72.97
80585;BME280;70137;56.482;9.154;2023-05-29T02:59:17;102282.63;;;7.87;72.68
80585;BME280;70137;56.482;9.154;2023-05-29T03:01:43;102275.81;;;7.86;72.60
80585;BME280;70137;56.482;9.154;2023-05-29T03:04:09;102280.97;;;7.86;72.69
80585;BME280;70137;56.482;9.154;2023-05-29T03:06:35;102290.25;;;7.88;72.75
80585;BME280;70137;56.482;9.154;2023-05-29T03:09:02;102282.63;;;7.87;72.43
80585;BME280;70137;56.482;9.154;2023-05-29T03:11:27;102277.47;;;7.87;72.92
80585;BME280;70137;56.482;9.154;2023-05-29T03:13:54;102273.94;;;7.88;73.04
80585;BME280;70137;56.482;9.154;2023-05-29T03:16:19;102277.47;;;7.87;73.04
80585;BME280;70137;56.482;9.154;2023-05-29T03:18:45;102279.09;;;7.88;73.01
80585;BME280;70137;56.482;9.154;2023-05-29T03:21:10;102280.75;;;7.89;73.45
80585;BME280;70137;56.482;9.154;2023-05-29T03:23:36;102281.47;;;7.91;73.32
80585;BME280;70137;56.482;9.154;2023-05-29T03:26:02;102282.91;;;7.95;73.17
80585;BME280;70137;56.482;9.154;2023-05-29T03:28:28;102292.09;;;7.99;73.65
80585;BME280;70137;56.482;9.154;2023-05-29T03:30:53;102295.41;;;8.01;72.56
80585;BME280;70137;56.482;9.154;2023-05-29T03:33:18;102288.47;;;8.01;72.39
80585;BME280;70137;56.482;9.154;2023-05-29T03:35:44;102294.25;;;8.05;72.74
80585;BME280;70137;56.482;9.154;2023-05-29T03:38:09;102299.41;;;8.05;72.92
80585;BME280;70137;56.482;9.154;2023-05-29T03:40:35;102293.31;;;8.06;72.35
80585;BME280;70137;56.482;9.154;2023-05-29T03:43:00;102300.13;;;8.07;72.27
80585;BME280;70137;56.482;9.154;2023-05-29T03:45:25;102296.59;;;8.08;72.71
80585;BME280;70137;56.482;9.154;2023-05-29T03:47:51;102304.88;;;8.13;73.33
80585;BME280;70137;56.482;9.154;2023-05-29T03:50:16;102306.41;;;8.16;72.75
80585;BME280;70137;56.482;9.154;2023-05-29T03:52:42;102314.84;;;8.18;73.18
80585;BME280;70137;56.482;9.154;2023-05-29T03:55:09;102317.25;;;8.21;72.44
80585;BME280;70137;56.482;9.154;2023-05-29T03:57:38;102320.41;;;8.24;72.36
80585;BME280;70137;56.482;9.154;2023-05-29T04:00:09;102324.41;;;8.28;72.45
80585;BME280;70137;56.482;9.154;2023-05-29T04:02:36;102326.81;;;8.31;72.45
80585;BME280;70137;56.482;9.154;2023-05-29T04:05:03;102331.66;;;8.36;72.05
80585;BME280;70137;56.482;9.154;2023-05-29T04:07:28;102330.63;;;8.39;72.18
80585;BME280;70137;56.482;9.154;2023-05-29T04:09:54;102335.59;;;8.42;72.48
80585;BME280;70137;56.482;9.154;2023-05-29T04:12:19;102332.06;;;8.43;72.56
80585;BME280;70137;56.482;9.154;2023-05-29T04:14:45;102330.91;;;8.47;73.15
80585;BME280;70137;56.482;9.154;2023-05-29T04:17:10;102330.78;;;8.48;72.42
80585;BME280;70137;56.482;9.154;2023-05-29T04:19:37;102333.03;;;8.53;72.76
80585;BME280;70137;56.482;9.154;2023-05-29T04:22:02;102335.28;;;8.57;72.95
80585;BME280;70137;56.482;9.154;2023-05-29T04:24:27;102328.28;;;8.59;72.52
80585;BME280;70137;56.482;9.154;2023-05-29T04:26:53;102322.03;;;8.62;71.98
80585;BME280;70137;56.482;9.154;2023-05-29T04:29:18;102323.44;;;8.66;71.76
80585;BME280;70137;56.482;9.154;2023-05-29T04:31:44;102326.53;;;8.71;72.13
80585;BME280;70137;56.482;9.154;2023-05-29T04:34:10;102320.91;;;8.77;72.03
80585;BME280;70137;56.482;9.154;2023-05-29T04:36:35;102325.63;;;8.83;72.04
80585;BME280;70137;56.482;9.154;2023-05-29T04:39:04;102331.06;;;8.92;71.75
80585;BME280;70137;56.482;9.154;2023-05-29T04:41:29;102329.69;;;8.99;71.54
80585;BME280;70137;56.482;9.154;2023-05-29T04:43:56;102330.16;;;9.04;71.78
80585;BME280;70137;56.482;9.154;2023-05-29T04:46:25;102330.53;;;9.10;71.31
80585;BME280;70137;56.482;9.154;2023-05-29T04:48:51;102341.13;;;9.18;71.29
80585;BME280;70137;56.482;9.154;2023-05-29T04:51:18;102345.63;;;9.28;71.24
80585;BME280;70137;56.482;9.154;2023-05-29T04:53:45;102344.13;;;9.36;70.72
80585;BME280;70137;56.482;9.154;2023-05-29T04:56:12;102347.53;;;9.48;71.68
80585;BME280;70137;56.482;9.154;2023-05-29T04:58:37;102362.94;;;9.61;70.79
80585;BME280;70137;56.482;9.154;2023-05-29T05:01:02;102358.94;;;9.68;70.64
80585;BME280;70137;56.482;9.154;2023-05-29T05:03:29;102359.28;;;9.74;70.01
80585;BME280;70137;56.482;9.154;2023-05-29T05:06:02;102359.66;;;9.81;70.46
80585;BME280;70137;56.482;9.154;2023-05-29T05:08:29;102357.16;;;9.91;69.96
80585;BME280;70137;56.482;9.154;2023-05-29T05:10:55;102363.16;;;10.02;69.99
80585;BME280;70137;56.482;9.154;2023-05-29T05:13:20;102362.44;;;10.12;69.92
80585;BME280;70137;56.482;9.154;2023-05-29T05:15:46;102368.78;;;10.19;69.90
80585;BME280;70137;56.482;9.154;2023-05-29T05:18:11;102380.94;;;10.29;69.17
80585;BME280;70137;56.482;9.154;2023-05-29T05:20:38;102376.09;;;10.36;69.51
80585;BME280;70137;56.482;9.154;2023-05-29T05:23:03;102363.34;;;10.44;68.84
80585;BME280;70137;56.482;9.154;2023-05-29T05:25:28;102368.03;;;10.50;69.00
80585;BME280;70137;56.482;9.154;2023-05-29T05:27:53;102368.50;;;10.55;67.55
80585;BME280;70137;56.482;9.154;2023-05-29T05:30:19;102369.66;;;10.63;67.69
80585;BME280;70137;56.482;9.154;2023-05-29T05:32:45;102375.03;;;10.71;67.80
80585;BME280;70137;56.482;9.154;2023-05-29T05:35:10;102378.91;;;10.76;67.10
80585;BME280;70137;56.482;9.154;2023-05-29T05:37:37;102380.88;;;10.84;67.81
80585;BME280;70137;56.482;9.154;2023-05-29T05:40:03;102391.22;;;10.95;67.67
80585;BME280;70137;56.482;9.154;2023-05-29T05:42:29;102384.59;;;11.02;67.07
80585;BME280;70137;56.482;9.154;2023-05-29T05:44:54;102384.06;;;11.08;67.46
80585;BME280;70137;56.482;9.154;2023-05-29T05:47:19;102392.63;;;11.20;66.42
80585;BME280;70137;56.482;9.154;2023-05-29T05:49:45;102392.09;;;11.26;66.21
80585;BME280;70137;56.482;9.154;2023-05-29T05:52:10;102394.34;;;11.31;65.90
80585;BME280;70137;56.482;9.154;2023-05-29T05:54:35;102387.25;;;11.33;66.06
80585;BME280;70137;56.482;9.154;2023-05-29T05:57:01;102381.78;;;11.36;65.43
80585;BME280;70137;56.482;9.154;2023-05-29T05:59:28;102382.41;;;11.49;65.74
80585;BME280;70137;56.482;9.154;2023-05-29T06:01:53;102378.63;;;11.63;65.53
80585;BME280;70137;56.482;9.154;2023-05-29T06:04:18;102386.31;;;11.64;64.58
80585;BME280;70137;56.482;9.154;2023-05-29T06:06:44;102384.44;;;11.76;64.81
80585;BME280;70137;56.482;9.154;2023-05-29T06:09:09;102387.13;;;11.95;64.80
80585;BME280;70137;56.482;9.154;2023-05-29T06:11:36;102381.47;;;12.21;63.59
80585;BME280;70137;56.482;9.154;2023-05-29T06:14:02;102388.22;;;12.43;63.15
80585;BME280;70137;56.482;9.154;2023-05-29T06:16:28;102393.72;;;12.59;63.74
80585;BME280;70137;56.482;9.154;2023-05-29T06:18:54;102398.63;;;12.81;61.96
80585;BME280;70137;56.482;9.154;2023-05-29T06:21:20;102385.22;;;12.96;60.76
80585;BME280;70137;56.482;9.154;2023-05-29T06:23:45;102379.72;;;13.08;60.62
80585;BME280;70137;56.482;9.154;2023-05-29T06:26:11;102380.16;;;13.23;60.50
80585;BME280;70137;56.482;9.154;2023-05-29T06:28:37;102387.94;;;13.33;59.91
80585;BME280;70137;56.482;9.154;2023-05-29T06:31:03;102389.25;;;13.46;60.01
80585;BME280;70137;56.482;9.154;2023-05-29T06:33:28;102399.63;;;13.66;59.75
80585;BME280;70137;56.482;9.154;2023-05-29T06:35:55;102394.91;;;13.79;58.34
80585;BME280;70137;56.482;9.154;2023-05-29T06:38:20;102392.41;;;13.87;58.45
80585;BME280;70137;56.482;9.154;2023-05-29T06:40:45;102401.38;;;14.02;58.17
80585;BME280;70137;56.482;9.154;2023-05-29T06:43:11;102399.91;;;14.18;57.81
80585;BME280;70137;56.482;9.154;2023-05-29T06:45:37;102401.88;;;14.33;57.25
80585;BME280;70137;56.482;9.154;2023-05-29T06:48:02;102400.03;;;14.44;55.55
80585;BME280;70137;56.482;9.154;2023-05-29T06:50:27;102398.38;;;14.52;55.31
80585;BME280;70137;56.482;9.154;2023-05-29T06:52:52;102402.31;;;14.56;54.70
80585;BME280;70137;56.482;9.154;2023-05-29T06:55:19;102404.03;;;14.66;52.79
80585;BME280;70137;56.482;9.154;2023-05-29T06:57:44;102389.72;;;14.70;51.58
80585;BME280;70137;56.482;9.154;2023-05-29T07:00:10;102397.84;;;14.67;51.17
80585;BME280;70137;56.482;9.154;2023-05-29T07:02:36;102407.75;;;14.81;52.15
80585;BME280;70137;56.482;9.154;2023-05-29T07:05:02;102403.19;;;15.01;50.63
80585;BME280;70137;56.482;9.154;2023-05-29T07:07:27;102402.78;;;15.13;49.12
80585;BME280;70137;56.482;9.154;2023-05-29T07:09:52;102392.94;;;15.25;49.73
80585;BME280;70137;56.482;9.154;2023-05-29T07:12:18;102407.22;;;15.39;50.26
80585;BME280;70137;56.482;9.154;2023-05-29T07:14:43;102411.56;;;15.56;48.99
80585;BME280;70137;56.482;9.154;2023-05-29T07:17:09;102418.56;;;15.73;49.17
80585;BME280;70137;56.482;9.154;2023-05-29T07:19:35;102417.63;;;15.83;46.92
80585;BME280;70137;56.482;9.154;2023-05-29T07:22:00;102406.69;;;15.87;46.84
80585;BME280;70137;56.482;9.154;2023-05-29T07:24:25;102407.56;;;16.04;46.39
80585;BME280;70137;56.482;9.154;2023-05-29T07:26:52;102416.72;;;16.08;44.74
80585;BME280;70137;56.482;9.154;2023-05-29T07:29:17;102417.94;;;16.22;46.32
80585;BME280;70137;56.482;9.154;2023-05-29T07:31:46;102420.41;;;16.48;44.64
80585;BME280;70137;56.482;9.154;2023-05-29T07:34:11;102421.78;;;16.68;43.11
80585;BME280;70137;56.482;9.154;2023-05-29T07:36:56;102411.31;;;16.76;43.00
80585;BME280;70137;56.482;9.154;2023-05-29T07:39:22;102422.28;;;16.88;42.92
80585;BME280;70137;56.482;9.154;2023-05-29T07:41:47;102424.75;;;16.98;41.02
80585;BME280;70137;56.482;9.154;2023-05-29T07:44:13;102421.13;;;17.07;40.41
80585;BME280;70137;56.482;9.154;2023-05-29T07:46:38;102429.34;;;17.20;39.79
80585;BME280;70137;56.482;9.154;2023-05-29T07:49:03;102423.75;;;17.23;39.08
80585;BME280;70137;56.482;9.154;2023-05-29T07:51:28;102428.50;;;17.28;39.86
80585;BME280;70137;56.482;9.154;2023-05-29T07:53:54;102423.22;;;17.44;40.72
80585;BME280;70137;56.482;9.154;2023-05-29T07:56:19;102420.25;;;17.55;38.17
80585;BME280;70137;56.482;9.154;2023-05-29T07:58:44;102426.63;;;17.61;36.97
80585;BME280;70137;56.482;9.154;2023-05-29T08:01:10;102433.69;;;17.60;36.49
80585;BME280;70137;56.482;9.154;2023-05-29T08:03:35;102433.84;;;17.67;38.36
80585;BME280;70137;56.482;9.154;2023-05-29T08:06:00;102430.06;;;17.78;38.75
80585;BME280;70137;56.482;9.154;2023-05-29T08:08:26;102432.56;;;18.02;38.16
80585;BME280;70137;56.482;9.154;2023-05-29T08:10:51;102431.31;;;18.21;38.34
80585;BME280;70137;56.482;9.154;2023-05-29T08:13:17;102428.31;;;18.32;37.47
80585;BME280;70137;56.482;9.154;2023-05-29T08:15:42;102432.88;;;18.38;38.17
80585;BME280;70137;56.482;9.154;2023-05-29T08:18:07;102434.75;;;18.52;35.30
80585;BME280;70137;56.482;9.154;2023-05-29T08:20:33;102446.72;;;18.55;35.59
80585;BME280;70137;56.482;9.154;2023-05-29T08:22:59;102438.38;;;18.51;35.38
80585;BME280;70137;56.482;9.154;2023-05-29T08:25:24;102431.75;;;18.64;33.75
80585;BME280;70137;56.482;9.154;2023-05-29T08:27:50;102430.25;;;18.61;33.33
80585;BME280;70137;56.482;9.154;2023-05-29T08:30:15;102435.09;;;18.49;33.65
80585;BME280;70137;56.482;9.154;2023-05-29T08:32:41;102434.16;;;18.42;35.59
80585;BME280;70137;56.482;9.154;2023-05-29T08:35:06;102443.75;;;18.58;35.95
80585;BME280;70137;56.482;9.154;2023-05-29T08:37:32;102435.03;;;18.66;33.45
80585;BME280;70137;56.482;9.154;2023-05-29T08:39:57;102428.16;;;18.65;33.28
80585;BME280;70137;56.482;9.154;2023-05-29T08:42:33;102442.25;;;18.64;33.75
80585;BME280;70137;56.482;9.154;2023-05-29T08:45:02;102441.31;;;18.56;33.43
80585;BME280;70137;56.482;9.154;2023-05-29T08:47:32;102450.84;;;18.49;32.97
80585;BME280;70137;56.482;9.154;2023-05-29T08:50:00;102445.25;;;18.52;34.08
80585;BME280;70137;56.482;9.154;2023-05-29T08:52:26;102439.84;;;18.54;33.91
80585;BME280;70137;56.482;9.154;2023-05-29T08:54:53;102446.19;;;18.59;33.71
80585;BME280;70137;56.482;9.154;2023-05-29T08:57:19;102431.06;;;18.70;33.68
80585;BME280;70137;56.482;9.154;2023-05-29T08:59:46;102432.19;;;18.90;32.88
80585;BME280;70137;56.482;9.154;2023-05-29T09:02:14;102425.88;;;18.99;30.64
80585;BME280;70137;56.482;9.154;2023-05-29T09:04:43;102434.78;;;18.98;32.41
80585;BME280;70137;56.482;9.154;2023-05-29T09:07:18;102428.50;;;18.99;31.26
80585;BME280;70137;56.482;9.154;2023-05-29T09:09:45;102424.56;;;19.03;32.75
80585;BME280;70137;56.482;9.154;2023-05-29T09:12:10;102427.75;;;19.13;33.63
80585;BME280;70137;56.482;9.154;2023-05-29T09:14:37;102427.69;;;19.22;32.08
80585;BME280;70137;56.482;9.154;2023-05-29T09:17:05;102432.63;;;19.16;31.88
80585;BME280;70137;56.482;9.154;2023-05-29T09:19:32;102426.69;;;19.23;34.06
80585;BME280;70137;56.482;9.154;2023-05-29T09:22:05;102406.75;;;19.43;32.42
80585;BME280;70137;56.482;9.154;2023-05-29T09:24:35;102412.09;;;19.50;32.98
80585;BME280;70137;56.482;9.154;2023-05-29T09:27:02;102421.19;;;19.62;33.05
80585;BME280;70137;56.482;9.154;2023-05-29T09:29:32;102423.56;;;19.71;33.79
80585;BME280;70137;56.482;9.154;2023-05-29T09:31:58;102415.47;;;19.73;32.03
80585;BME280;70137;56.482;9.154;2023-05-29T09:34:24;102412.75;;;19.81;31.13
80585;BME280;70137;56.482;9.154;2023-05-29T09:36:52;102424.88;;;19.97;30.48
80585;BME280;70137;56.482;9.154;2023-05-29T09:39:17;102428.03;;;20.07;31.70
80585;BME280;70137;56.482;9.154;2023-05-29T09:41:44;102435.72;;;20.23;32.72
80585;BME280;70137;56.482;9.154;2023-05-29T09:44:16;102425.22;;;20.45;32.41
80585;BME280;70137;56.482;9.154;2023-05-29T09:46:41;102410.31;;;20.52;30.78
80585;BME280;70137;56.482;9.154;2023-05-29T09:49:12;102396.63;;;20.63;31.98
80585;BME280;70137;56.482;9.154;2023-05-29T09:51:38;102403.78;;;20.69;30.60
80585;BME280;70137;56.482;9.154;2023-05-29T09:54:17;102405.84;;;20.74;31.32
80585;BME280;70137;56.482;9.154;2023-05-29T09:56:43;102412.25;;;20.86;31.47
80585;BME280;70137;56.482;9.154;2023-05-29T09:59:14;102401.75;;;20.71;28.77
80585;BME280;70137;56.482;9.154;2023-05-29T10:01:41;102417.34;;;20.66;30.06
80585;BME280;70137;56.482;9.154;2023-05-29T10:04:08;102422.34;;;20.61;29.57
80585;BME280;70137;56.482;9.154;2023-05-29T10:06:36;102408.97;;;20.63;29.34
80585;BME280;70137;56.482;9.154;2023-05-29T10:09:02;102418.72;;;20.62;29.52
80585;BME280;70137;56.482;9.154;2023-05-29T10:11:31;102418.25;;;20.80;30.61
80585;BME280;70137;56.482;9.154;2023-05-29T10:14:00;102411.03;;;20.89;28.92
80585;BME280;70137;56.482;9.154;2023-05-29T10:16:26;102411.84;;;20.89;28.19
80585;BME280;70137;56.482;9.154;2023-05-29T10:18:56;102413.69;;;20.89;28.68
80585;BME280;70137;56.482;9.154;2023-05-29T10:21:25;102414.56;;;20.96;26.87
80585;BME280;70137;56.482;9.154;2023-05-29T10:23:51;102416.03;;;21.05;27.22
80585;BME280;70137;56.482;9.154;2023-05-29T10:26:21;102406.94;;;21.07;29.08
80585;BME280;70137;56.482;9.154;2023-05-29T10:34:44;102406.28;;;21.27;29.01
80585;BME280;70137;56.482;9.154;2023-05-29T10:37:24;102415.06;;;21.40;28.77
80585;BME280;70137;56.482;9.154;2023-05-29T10:40:09;102402.66;;;21.34;27.54
80585;BME280;70137;56.482;9.154;2023-05-29T10:45:09;102408.00;;;21.48;29.29
80585;BME280;70137;56.482;9.154;2023-05-29T10:47:37;102409.53;;;21.63;28.92
80585;BME280;70137;56.482;9.154;2023-05-29T10:50:04;102414.00;;;21.69;29.18
80585;BME280;70137;56.482;9.154;2023-05-29T10:52:33;102408.00;;;21.82;29.90
80585;BME280;70137;56.482;9.154;2023-05-29T10:54:59;102415.97;;;22.02;26.78
80585;BME280;70137;56.482;9.154;2023-05-29T10:57:29;102415.53;;;21.98;26.28
80585;BME280;70137;56.482;9.154;2023-05-29T11:00:07;102415.56;;;22.05;27.08
80585;BME280;70137;56.482;9.154;2023-05-29T11:02:39;102426.06;;;21.85;27.10
80585;BME280;70137;56.482;9.154;2023-05-29T11:05:18;102400.97;;;21.61;26.87
80585;BME280;70137;56.482;9.154;2023-05-29T11:07:52;102421.06;;;21.56;29.43
80585;BME280;70137;56.482;9.154;2023-05-29T11:13:06;102420.75;;;21.79;27.72
80585;BME280;70137;56.482;9.154;2023-05-29T11:15:33;102411.88;;;21.93;27.66
80585;BME280;70137;56.482;9.154;2023-05-29T11:18:06;102415.09;;;21.88;28.43
80585;BME280;70137;56.482;9.154;2023-05-29T11:20:50;102413.19;;;22.10;28.38
80585;BME280;70137;56.482;9.154;2023-05-29T11:23:19;102407.53;;;22.26;27.48
80585;BME280;70137;56.482;9.154;2023-05-29T11:25:46;102407.16;;;22.43;28.86
80585;BME280;70137;56.482;9.154;2023-05-29T11:28:12;102410.00;;;22.54;27.49
80585;BME280;70137;56.482;9.154;2023-05-29T11:33:08;102415.50;;;22.40;25.51
80585;BME280;70137;56.482;9.154;2023-05-29T11:35:38;102416.69;;;22.37;23.98
80585;BME280;70137;56.482;9.154;2023-05-29T11:38:04;102412.22;;;22.31;25.84
80585;BME280;70137;56.482;9.154;2023-05-29T11:40:35;102425.06;;;22.54;26.44
80585;BME280;70137;56.482;9.154;2023-05-29T11:43:01;102411.44;;;22.77;24.83
80585;BME280;70137;56.482;9.154;2023-05-29T11:45:26;102415.94;;;22.70;23.26
80585;BME280;70137;56.482;9.154;2023-05-29T11:47:55;102416.50;;;22.45;23.17
80585;BME280;70137;56.482;9.154;2023-05-29T11:50:28;102417.72;;;22.36;23.39
80585;BME280;70137;56.482;9.154;2023-05-29T11:52:56;102412.59;;;22.28;24.32
80585;BME280;70137;56.482;9.154;2023-05-29T11:55:23;102403.47;;;22.24;24.46
80585;BME280;70137;56.482;9.154;2023-05-29T11:57:51;102413.63;;;22.27;24.85
80585;BME280;70137;56.482;9.154;2023-05-29T12:00:18;102415.66;;;22.38;23.33
80585;BME280;70137;56.482;9.154;2023-05-29T12:02:44;102411.63;;;22.42;24.48
80585;BME280;70137;56.482;9.154;2023-05-29T12:05:13;102420.38;;;22.49;23.49
80585;BME280;70137;56.482;9.154;2023-05-29T12:07:47;102409.16;;;22.34;23.43
80585;BME280;70137;56.482;9.154;2023-05-29T12:10:14;102410.38;;;22.38;26.78
80585;BME280;70137;56.482;9.154;2023-05-29T12:12:40;102421.41;;;22.75;24.28
80585;BME280;70137;56.482;9.154;2023-05-29T12:15:08;102411.84;;;22.61;25.21
80585;BME280;70137;56.482;9.154;2023-05-29T12:17:35;102423.84;;;22.63;24.37
80585;BME280;70137;56.482;9.154;2023-05-29T12:20:02;102404.31;;;22.57;24.23
80585;BME280;70137;56.482;9.154;2023-05-29T12:22:36;102413.28;;;22.70;23.99
80585;BME280;70137;56.482;9.154;2023-05-29T12:25:15;102402.31;;;22.93;24.54
80585;BME280;70137;56.482;9.154;2023-05-29T12:27:43;102418.19;;;22.86;23.22
80585;BME280;70137;56.482;9.154;2023-05-29T12:30:10;102427.50;;;22.82;23.90
80585;BME280;70137;56.482;9.154;2023-05-29T12:32:40;102424.69;;;22.90;23.67
80585;BME280;70137;56.482;9.154;2023-05-29T12:38:04;102425.47;;;22.64;23.88
80585;BME280;70137;56.482;9.154;2023-05-29T12:42:58;102437.13;;;22.90;23.55
80585;BME280;70137;56.482;9.154;2023-05-29T12:45:28;102431.16;;;22.68;22.94
80585;BME280;70137;56.482;9.154;2023-05-29T12:47:56;102434.03;;;22.79;23.92
80585;BME280;70137;56.482;9.154;2023-05-29T12:50:27;102435.66;;;22.87;23.89
80585;BME280;70137;56.482;9.154;2023-05-29T12:52:54;102433.22;;;23.05;23.38
80585;BME280;70137;56.482;9.154;2023-05-29T12:55:20;102429.56;;;22.93;24.48
80585;BME280;70137;56.482;9.154;2023-05-29T12:57:45;102433.63;;;22.82;24.33
80585;BME280;70137;56.482;9.154;2023-05-29T13:00:12;102434.03;;;22.73;25.21
80585;BME280;70137;56.482;9.154;2023-05-29T13:02:37;102433.19;;;22.66;25.46
80585;BME280;70137;56.482;9.154;2023-05-29T13:05:03;102419.19;;;22.59;24.77
80585;BME280;70137;56.482;9.154;2023-05-29T13:07:28;102417.13;;;22.41;24.52
80585;BME280;70137;56.482;9.154;2023-05-29T13:09:54;102425.22;;;22.26;24.67
80585;BME280;70137;56.482;9.154;2023-05-29T13:12:20;102434.03;;;21.98;25.23
80585;BME280;70137;56.482;9.154;2023-05-29T13:14:45;102435.84;;;21.91;27.58
80585;BME280;70137;56.482;9.154;2023-05-29T13:17:10;102442.19;;;22.04;27.43
80585;BME280;70137;56.482;9.154;2023-05-29T13:19:36;102444.88;;;22.17;26.38
80585;BME280;70137;56.482;9.154;2023-05-29T13:22:01;102455.84;;;22.14;26.86
80585;BME280;70137;56.482;9.154;2023-05-29T13:24:26;102448.03;;;21.92;27.87